Time;durP1;ratioP1;P1;durP2;ratioP2;P2;SDS_P1;SDS_P2;PMS_P1;PMS_P2;Temp;Humidity;BMP_temperature;BMP_pressure;BME280_temperature;BME280_humidity;BME280_pressure;Samples;Min_cycle;Max_cycle;Signal;HPM_P1;HPM_P2
2022/06/17 00:00:21;;;;;;;8.02;6.43;;;;;;;17.70;64.43;102298.97;5037399;28;20048;-58
2022/06/17 00:02:46;;;;;;;10.23;6.55;;;;;;;17.71;64.72;102289.91;5039616;28;20025;-57
2022/06/17 00:05:11;;;;;;;8.63;7.30;;;;;;;17.49;64.45;102296.94;5041139;28;20029;-57
2022/06/17 00:07:40;;;;;;;9.88;7.43;;;;;;;17.41;64.56;102295.16;5038886;28;20037;-57
2022/06/17 00:10:16;;;;;;;9.43;7.20;;;;;;;17.37;64.81;102301.91;5039451;28;20503;-56
2022/06/17 00:12:41;;;;;;;9.00;7.47;;;;;;;17.28;65.12;102297.59;5041825;28;20538;-56
2022/06/17 00:15:13;;;;;;;12.38;7.70;;;;;;;17.42;65.16;102291.44;5042077;28;20013;-57
2022/06/17 00:17:40;;;;;;;13.07;7.63;;;;;;;17.35;65.35;102290.50;5041713;28;20037;-57
2022/06/17 00:20:08;;;;;;;10.38;7.65;;;;;;;17.32;66.19;102285.47;5040431;28;20029;-56
2022/06/17 00:22:35;;;;;;;12.82;7.00;;;;;;;17.48;66.38;102296.09;5041646;28;20029;-56
2022/06/17 00:25:01;;;;;;;11.73;8.25;;;;;;;17.37;65.76;102296.53;5038663;28;20065;-57
2022/06/17 00:27:26;;;;;;;11.73;7.32;;;;;;;17.38;65.85;102292.84;5040703;28;20481;-57
2022/06/17 00:29:52;;;;;;;8.80;7.13;;;;;;;17.30;66.05;102293.72;5040976;28;20029;-57
2022/06/17 00:32:17;;;;;;;13.73;7.97;;;;;;;17.22;66.21;102301.00;5040696;28;20021;-58
2022/06/17 00:34:42;;;;;;;13.20;8.40;;;;;;;17.12;66.25;102298.56;5040342;28;20040;-55
2022/06/17 00:37:12;;;;;;;11.13;8.43;;;;;;;17.00;66.73;102303.47;5039074;28;20036;-56
2022/06/17 00:39:37;;;;;;;10.32;8.20;;;;;;;16.92;67.25;102302.69;5042062;28;20033;-58
2022/06/17 00:42:10;;;;;;;10.48;8.60;;;;;;;16.93;67.67;102307.06;5040965;28;20102;-57
2022/06/17 00:44:45;;;;;;;15.13;9.10;;;;;;;16.94;67.71;102297.97;5040310;28;20053;-57
2022/06/17 00:47:23;;;;;;;10.43;8.05;;;;;;;17.03;67.40;102308.47;5037047;28;20115;-57
2022/06/17 00:49:54;;;;;;;10.07;8.02;;;;;;;17.07;67.35;102306.31;5039032;28;20476;-57
2022/06/17 00:52:35;;;;;;;11.75;8.18;;;;;;;17.19;67.26;102304.88;5039243;28;20340;-56
2022/06/17 00:55:10;;;;;;;12.65;8.23;;;;;;;17.14;67.57;102303.75;5037514;28;20040;-55
2022/06/17 00:57:38;;;;;;;9.77;8.23;;;;;;;17.19;67.28;102314.78;5038982;28;20031;-55
2022/06/17 01:00:12;;;;;;;11.32;8.85;;;;;;;17.14;67.18;102318.00;5041720;28;20043;-57
2022/06/17 01:02:46;;;;;;;13.45;8.88;;;;;;;17.04;67.47;102315.53;5039943;28;20107;-57
2022/06/17 01:05:12;;;;;;;10.82;8.52;;;;;;;17.18;67.50;102315.78;5038830;28;20025;-57
2022/06/17 01:07:42;;;;;;;19.67;8.77;;;;;;;17.15;67.79;102302.72;5037881;28;20036;-56
2022/06/17 01:10:12;;;;;;;10.48;8.98;;;;;;;17.05;68.35;102305.63;5036923;28;20231;-58
2022/06/17 01:12:53;;;;;;;9.18;8.23;;;;;;;17.10;68.52;102314.00;5043188;28;20029;-57
2022/06/17 01:15:20;;;;;;;12.63;8.82;;;;;;;16.99;68.06;102300.97;5039158;28;20021;-57
2022/06/17 01:17:48;;;;;;;12.45;9.55;;;;;;;16.97;68.13;102294.94;5039842;28;20029;-57
2022/06/17 01:20:14;;;;;;;11.75;8.73;;;;;;;16.95;68.24;102300.50;5039577;28;20104;-56
2022/06/17 01:22:45;;;;;;;13.80;9.50;;;;;;;17.04;68.34;102303.94;5041823;28;20116;-57
2022/06/17 01:25:19;;;;;;;13.57;10.55;;;;;;;17.07;68.21;102303.63;5038488;28;20033;-57
2022/06/17 01:27:48;;;;;;;11.90;9.90;;;;;;;17.07;67.59;102298.25;5036965;28;20089;-56
2022/06/17 01:30:16;;;;;;;;;;;;;;;17.22;67.32;102301.81;5036532;28;20029;-56
2022/06/17 01:32:49;;;;;;;14.73;9.50;;;;;;;17.16;67.03;102294.50;5038588;28;20008;-57
2022/06/17 01:35:15;;;;;;;13.65;9.70;;;;;;;17.07;67.47;102292.88;5034349;28;20111;-56
2022/06/17 01:37:41;;;;;;;14.18;10.13;;;;;;;16.99;67.68;102296.44;5037986;28;20124;-57
2022/06/17 01:40:07;;;;;;;11.30;9.32;;;;;;;16.99;67.85;102303.66;5033827;28;20059;-57
2022/06/17 01:42:35;;;;;;;12.80;9.65;;;;;;;16.97;68.40;102290.41;5037651;28;20026;-57
2022/06/17 01:45:01;;;;;;;11.23;9.68;;;;;;;16.96;67.93;102304.84;5037094;28;20204;-57
2022/06/17 01:47:29;;;;;;;12.90;9.73;;;;;;;16.94;68.08;102303.34;5037965;28;20140;-57
2022/06/17 01:49:59;;;;;;;11.75;10.13;;;;;;;16.95;68.36;102305.03;5039489;28;20477;-56
2022/06/17 01:52:31;;;;;;;14.75;9.73;;;;;;;16.96;68.50;102301.31;5038956;28;20054;-55
2022/06/17 01:55:07;;;;;;;11.93;9.45;;;;;;;16.87;68.23;102305.91;5039694;28;20075;-57
2022/06/17 01:57:37;;;;;;;12.85;9.90;;;;;;;16.82;68.91;102304.78;5037858;28;20116;-57
2022/06/17 02:00:11;;;;;;;13.27;9.73;;;;;;;16.78;69.01;102293.56;5039070;28;20057;-56
2022/06/17 02:02:38;;;;;;;15.68;10.75;;;;;;;16.72;68.93;102296.91;5037561;28;20025;-57
2022/06/17 02:05:06;;;;;;;11.80;10.00;;;;;;;16.73;68.76;102295.91;5037463;28;20033;-56
2022/06/17 02:07:40;;;;;;;14.48;11.48;;;;;;;16.66;68.66;102305.69;5036051;28;20029;-57
2022/06/17 02:10:06;;;;;;;16.30;10.95;;;;;;;16.68;68.42;102298.28;5037816;28;20021;-55
2022/06/17 02:12:31;;;;;;;14.68;10.65;;;;;;;16.59;68.39;102288.59;5037471;28;20505;-56
2022/06/17 02:14:57;;;;;;;12.82;10.73;;;;;;;16.66;68.49;102303.00;5036537;28;20029;-56
2022/06/17 02:17:29;;;;;;;15.13;10.63;;;;;;;16.78;68.25;102298.94;5039477;28;20033;-56
2022/06/17 02:19:55;;;;;;;12.68;10.52;;;;;;;16.74;68.13;102300.25;5030801;28;20021;-57
2022/06/17 02:22:25;;;;;;;14.30;11.18;;;;;;;16.72;68.45;102299.59;5036469;28;20039;-56
2022/06/17 02:24:53;;;;;;;12.18;10.75;;;;;;;16.71;68.13;102295.25;5038488;28;20094;-57
2022/06/17 02:27:19;;;;;;;14.43;10.98;;;;;;;16.69;68.52;102300.78;5036817;28;20017;-56
2022/06/17 02:29:46;;;;;;;16.52;10.38;;;;;;;16.69;68.54;102305.31;5040859;28;20135;-57
2022/06/17 02:32:12;;;;;;;13.93;11.20;;;;;;;16.72;68.77;102297.75;5038825;28;20032;-57
2022/06/17 02:34:46;;;;;;;16.08;11.35;;;;;;;16.70;68.19;102290.91;5037396;28;20060;-56
2022/06/17 02:37:15;;;;;;;13.15;10.52;;;;;;;16.70;68.15;102291.72;5033552;28;20033;-56
2022/06/17 02:39:47;;;;;;;15.07;10.77;;;;;;;16.74;68.19;102292.22;5043159;28;20512;-57
2022/06/17 02:42:19;;;;;;;16.17;11.52;;;;;;;16.69;68.22;102282.00;5039353;28;20029;-57
2022/06/17 02:44:48;;;;;;;15.25;11.93;;;;;;;16.69;67.69;102294.59;5038837;28;20021;-57
2022/06/17 02:47:13;;;;;;;13.75;11.48;;;;;;;16.69;67.48;102300.78;5040501;28;20039;-55
2022/06/17 02:49:40;;;;;;;18.38;12.63;;;;;;;16.69;67.48;102297.28;5044234;28;20021;-56
2022/06/17 02:52:12;;;;;;;15.73;12.15;;;;;;;16.72;67.44;102294.25;5041038;28;20017;-55
2022/06/17 02:54:44;;;;;;;13.88;12.02;;;;;;;16.66;67.02;102297.63;5043992;28;20033;-57
2022/06/17 02:57:16;;;;;;;13.98;12.02;;;;;;;16.65;66.88;102296.75;5038267;28;20025;-57
2022/06/17 02:59:48;;;;;;;15.02;12.05;;;;;;;16.59;67.14;102297.47;5039281;28;20120;-57
2022/06/17 03:02:51;;;;;;;14.43;12.18;;;;;;;16.72;67.27;102299.59;5042245;28;20025;-56
2022/06/17 03:05:32;;;;;;;19.90;13.15;;;;;;;16.67;67.18;102297.44;4981554;28;20049;-57
2022/06/17 03:08:00;;;;;;;15.68;12.50;;;;;;;16.61;67.20;102291.94;5040092;28;20052;-56
2022/06/17 03:10:35;;;;;;;15.63;12.10;;;;;;;16.76;66.83;102292.88;5040475;28;20036;-57
2022/06/17 03:13:13;;;;;;;15.52;12.35;;;;;;;16.73;67.06;102291.38;5043844;28;20115;-57
2022/06/17 03:15:40;;;;;;;17.97;13.27;;;;;;;16.78;67.02;102295.41;5039883;28;20119;-57
2022/06/17 03:18:06;;;;;;;15.80;13.00;;;;;;;16.79;66.75;102289.88;5037398;28;20302;-56
2022/06/17 03:20:34;;;;;;;13.88;11.70;;;;;;;16.88;66.35;102294.16;5043321;28;20508;-55
2022/06/17 03:23:16;;;;;;;17.73;13.82;;;;;;;16.86;66.63;102298.88;5043286;28;20041;-55
2022/06/17 03:25:53;;;;;;;18.05;13.65;;;;;;;16.91;66.61;102307.22;5041513;28;20052;-57
2022/06/17 03:28:28;;;;;;;20.13;14.38;;;;;;;16.93;66.10;102307.06;5037330;28;20120;-56
2022/06/17 03:31:03;;;;;;;18.33;13.48;;;;;;;16.93;65.90;102317.78;5041977;28;20032;-57
2022/06/17 03:33:43;;;;;;;17.50;13.55;;;;;;;16.98;66.17;102323.44;5042374;28;20664;-56
2022/06/17 03:36:20;;;;;;;16.27;14.05;;;;;;;16.97;66.04;102317.25;5038293;28;20029;-57
2022/06/17 03:39:11;;;;;;;16.88;13.10;;;;;;;17.02;65.97;102327.44;5038800;28;20074;-57
2022/06/17 03:41:45;;;;;;;15.27;13.40;;;;;;;16.97;65.67;102327.97;5043228;28;20054;-56
2022/06/17 03:44:24;;;;;;;17.50;14.00;;;;;;;16.96;66.12;102331.69;5039031;28;20021;-56
2022/06/17 03:46:53;;;;;;;;;;;;;;;17.11;65.63;102339.84;5040638;28;20028;-56
2022/06/17 03:49:26;;;;;;;17.30;13.97;;;;;;;16.98;66.19;102340.38;5038825;28;19948;-56
2022/06/17 03:51:58;;;;;;;18.40;14.52;;;;;;;16.87;66.00;102335.44;5039637;28;20396;-55
2022/06/17 03:54:24;;;;;;;16.77;13.55;;;;;;;16.87;66.52;102332.75;5039556;28;20429;-56
2022/06/17 03:56:52;;;;;;;23.13;14.93;;;;;;;16.86;66.63;102331.06;5042348;28;20102;-55
2022/06/17 03:59:25;;;;;;;17.83;14.23;;;;;;;16.93;66.71;102320.47;5036704;28;20028;-55
2022/06/17 04:02:03;;;;;;;18.95;14.55;;;;;;;17.00;66.61;102324.94;5038534;28;20036;-56
2022/06/17 04:04:33;;;;;;;18.80;14.13;;;;;;;17.04;66.54;102325.44;5040809;28;20604;-56
2022/06/17 04:06:59;;;;;;;19.80;14.13;;;;;;;17.07;65.96;102321.59;5038556;28;20044;-56
2022/06/17 04:09:31;;;;;;;21.48;14.40;;;;;;;17.06;66.06;102328.78;5041275;28;20033;-57
2022/06/17 04:12:00;;;;;;;17.63;13.82;;;;;;;17.08;66.19;102331.31;5043526;28;20017;-56
2022/06/17 04:14:45;;;;;;;17.02;13.95;;;;;;;17.15;66.13;102333.09;5040502;28;20024;-56
2022/06/17 04:17:25;;;;;;;17.50;13.55;;;;;;;17.18;65.90;102329.22;5035087;28;20132;-57
2022/06/17 04:20:11;;;;;;;19.42;14.10;;;;;;;17.13;66.07;102324.38;5041006;28;20055;-56
2022/06/17 04:22:37;;;;;;;18.83;13.88;;;;;;;17.15;65.93;102321.53;5041786;28;20033;-57
2022/06/17 04:25:06;;;;;;;16.20;13.18;;;;;;;17.13;65.93;102319.00;5040080;28;20071;-56
2022/06/17 04:30:26;;;;;;;16.08;13.60;;;;;;;17.12;65.74;102317.34;5038617;28;20028;-57
2022/06/17 04:33:03;;;;;;;15.93;12.95;;;;;;;17.12;65.14;102314.66;5038657;28;20125;-55
2022/06/17 04:35:28;;;;;;;18.75;14.15;;;;;;;17.11;65.50;102307.63;5039820;28;20028;-56
2022/06/17 04:37:54;;;;;;;19.35;12.68;;;;;;;17.13;65.06;102296.72;5037923;28;20439;-55
2022/06/17 04:40:36;;;;;;;20.85;13.18;;;;;;;17.16;65.18;102296.34;5039824;28;20034;-56
2022/06/17 04:43:05;;;;;;;16.45;12.35;;;;;;;17.19;64.99;102298.66;5042084;28;20043;-57
2022/06/17 04:45:30;;;;;;;16.70;13.43;;;;;;;17.18;65.13;102294.31;5045932;28;20032;-57
2022/06/17 04:47:57;;;;;;;18.70;13.48;;;;;;;17.22;64.85;102285.72;5045863;28;20021;-57
2022/06/17 04:50:25;;;;;;;19.80;13.05;;;;;;;17.24;64.64;102296.28;5047194;28;20156;-57
2022/06/17 04:52:55;;;;;;;16.20;12.90;;;;;;;17.27;64.85;102287.88;5050611;28;20028;-56
2022/06/17 04:55:28;;;;;;;20.27;13.10;;;;;;;17.28;64.96;102276.09;5059698;28;20215;-56
2022/06/17 04:57:54;;;;;;;17.40;12.70;;;;;;;17.31;64.53;102279.25;5046020;28;20043;-56
2022/06/17 05:00:23;;;;;;;21.40;12.80;;;;;;;17.32;64.33;102288.16;5048017;28;20021;-56
2022/06/17 05:02:49;;;;;;;21.35;12.70;;;;;;;17.37;64.24;102288.47;5046736;28;20029;-57
2022/06/17 05:05:28;;;;;;;18.55;13.23;;;;;;;17.39;64.47;102291.81;5050320;28;20497;-57
2022/06/17 05:07:56;;;;;;;18.55;13.32;;;;;;;17.40;64.36;102290.81;5044959;28;20389;-57
2022/06/17 05:10:26;;;;;;;21.55;13.05;;;;;;;17.41;64.56;102288.94;5052685;28;20459;-56
2022/06/17 05:13:09;;;;;;;16.48;12.70;;;;;;;17.45;64.32;102293.78;5040284;28;20372;-56
2022/06/17 05:15:36;;;;;;;16.05;12.88;;;;;;;17.45;64.38;102285.72;5039810;28;20033;-56
2022/06/17 05:18:02;;;;;;;19.30;12.77;;;;;;;17.51;64.67;102273.41;5036552;28;20037;-57
2022/06/17 05:20:27;;;;;;;16.67;13.38;;;;;;;17.54;64.52;102275.72;5038939;28;20036;-57
2022/06/17 05:23:00;;;;;;;16.35;13.13;;;;;;;17.56;64.32;102277.22;5038943;28;20433;-56
2022/06/17 05:25:37;;;;;;;17.00;12.98;;;;;;;17.62;64.30;102281.03;5043675;28;20064;-57
2022/06/17 05:28:06;;;;;;;14.73;12.95;;;;;;;17.65;64.21;102273.47;5045628;28;20020;-57
2022/06/17 05:30:35;;;;;;;17.05;13.10;;;;;;;17.70;63.99;102274.78;5042696;28;20028;-56
2022/06/17 05:33:01;;;;;;;15.57;12.88;;;;;;;17.73;63.97;102288.69;5038060;28;20068;-56
2022/06/17 05:35:26;;;;;;;18.83;13.50;;;;;;;17.72;63.79;102296.94;5036717;28;20071;-57
2022/06/17 05:37:52;;;;;;;17.23;13.63;;;;;;;17.80;64.03;102289.63;5035696;28;20025;-56
2022/06/17 05:40:18;;;;;;;18.98;13.27;;;;;;;17.87;64.07;102290.56;5037200;28;20037;-57
2022/06/17 05:42:45;;;;;;;17.65;13.90;;;;;;;17.90;64.32;102286.66;5044500;28;20021;-57
2022/06/17 05:45:22;;;;;;;15.88;13.02;;;;;;;17.91;64.35;102288.34;5045506;28;20036;-56
2022/06/17 05:47:47;;;;;;;17.35;12.98;;;;;;;17.92;63.88;102282.78;5041371;28;20488;-57
2022/06/17 05:50:14;;;;;;;16.80;13.07;;;;;;;17.89;63.65;102272.38;5041704;28;20075;-56
2022/06/17 05:52:56;;;;;;;19.13;13.32;;;;;;;17.98;64.02;102281.22;5037620;28;20067;-56
2022/06/17 05:55:23;;;;;;;20.17;13.43;;;;;;;18.00;63.56;102279.19;5037455;28;20041;-56
2022/06/17 05:57:49;;;;;;;19.02;13.25;;;;;;;18.03;63.75;102273.44;5040858;28;20435;-57
2022/06/17 06:00:16;;;;;;;16.70;13.20;;;;;;;18.07;63.59;102274.72;5047100;28;20028;-56
2022/06/17 06:02:41;;;;;;;17.15;12.65;;;;;;;18.14;63.72;102266.75;5043755;28;20216;-57
2022/06/17 06:05:08;;;;;;;18.25;13.70;;;;;;;18.15;63.68;102258.50;5057178;28;20020;-56
2022/06/17 06:07:33;;;;;;;19.10;13.20;;;;;;;18.16;63.63;102241.34;5043393;28;20033;-56
2022/06/17 06:09:59;;;;;;;21.20;14.27;;;;;;;18.17;63.53;102245.69;5042934;28;20017;-57
2022/06/17 06:12:53;;;;;;;20.20;13.25;;;;;;;18.18;63.47;102250.06;5043835;28;20052;-57
2022/06/17 06:15:11;;;;;;;17.83;12.48;;;;;;;18.20;63.21;102252.56;5045120;28;20481;-56
2022/06/17 06:17:37;;;;;;;18.02;12.98;;;;;;;18.24;62.62;102251.19;5047726;28;20025;-56
2022/06/17 06:20:02;;;;;;;17.55;13.00;;;;;;;18.29;63.18;102258.69;5048032;28;20043;-56
2022/06/17 06:22:27;;;;;;;18.58;12.85;;;;;;;18.35;62.92;102260.63;5052284;28;20059;-56
2022/06/17 06:24:53;;;;;;;17.00;12.10;;;;;;;18.42;63.11;102265.06;5050060;28;20017;-57
2022/06/17 06:27:18;;;;;;;16.73;12.55;;;;;;;18.49;62.94;102270.53;5048196;28;20503;-56
2022/06/17 06:29:45;;;;;;;17.45;11.90;;;;;;;18.57;62.41;102263.22;5059236;28;20488;-57
2022/06/17 06:32:10;;;;;;;17.35;12.48;;;;;;;18.66;62.43;102263.94;5053038;28;20025;-56
2022/06/17 06:34:36;;;;;;;16.67;12.32;;;;;;;18.73;62.82;102262.16;5049861;28;20020;-56
2022/06/17 06:37:01;;;;;;;16.08;11.85;;;;;;;18.77;62.62;102262.63;5046519;28;20197;-56
2022/06/17 06:39:26;;;;;;;16.13;12.20;;;;;;;18.77;61.69;102268.00;5055903;28;20028;-57
2022/06/17 06:41:51;;;;;;;17.15;12.68;;;;;;;18.80;61.90;102271.19;5053695;28;20238;-56
2022/06/17 06:44:17;;;;;;;17.98;12.43;;;;;;;18.81;61.94;102270.16;5056712;28;20029;-57
2022/06/17 06:46:42;;;;;;;16.40;12.00;;;;;;;18.86;62.01;102261.50;5060581;28;20016;-56
2022/06/17 06:49:07;;;;;;;20.13;13.23;;;;;;;18.91;62.20;102266.31;5049198;28;20024;-57
2022/06/17 06:51:33;;;;;;;16.15;12.23;;;;;;;18.92;62.19;102260.72;5051650;28;20025;-57
2022/06/17 06:53:58;;;;;;;18.58;12.15;;;;;;;18.99;61.88;102266.19;5058729;28;20125;-58
2022/06/17 06:56:24;;;;;;;20.85;12.65;;;;;;;19.01;61.74;102272.19;5051642;28;20120;-55
2022/06/17 06:58:49;;;;;;;18.63;12.55;;;;;;;19.05;61.97;102263.53;5055532;28;20024;-56
2022/06/17 07:01:15;;;;;;;20.20;12.20;;;;;;;19.06;61.82;102265.22;5050459;28;20057;-56
2022/06/17 07:03:40;;;;;;;17.38;12.15;;;;;;;19.16;61.42;102262.22;5050390;28;20040;-56
2022/06/17 07:06:05;;;;;;;15.32;11.82;;;;;;;19.23;61.49;102273.06;5051759;28;20028;-56
2022/06/17 07:08:34;;;;;;;16.35;11.68;;;;;;;19.33;61.34;102274.38;5061776;28;20033;-55
2022/06/17 07:11:00;;;;;;;16.23;11.55;;;;;;;19.39;60.85;102280.88;5049552;28;20104;-57
2022/06/17 07:13:31;;;;;;;20.63;12.02;;;;;;;19.48;60.86;102279.72;5055761;28;20514;-56
2022/06/17 07:15:56;;;;;;;17.08;11.32;;;;;;;19.59;60.90;102283.75;5050282;28;20024;-56
2022/06/17 07:18:27;;;;;;;15.73;10.90;;;;;;;19.68;60.63;102266.44;5047045;28;20037;-55
2022/06/17 07:20:55;;;;;;;16.38;10.73;;;;;;;19.75;60.05;102253.84;5060648;28;20028;-56
2022/06/17 07:23:30;;;;;;;14.88;10.73;;;;;;;19.82;60.14;102256.56;5050298;28;20079;-56
2022/06/17 07:25:58;;;;;;;16.98;10.57;;;;;;;19.89;59.67;102255.56;5065146;28;20406;-56
2022/06/17 07:28:25;;;;;;;14.40;9.90;;;;;;;19.92;59.02;102263.25;5050613;28;20044;-56
2022/06/17 07:30:52;;;;;;;14.88;10.00;;;;;;;20.03;59.15;102268.13;5049284;28;20103;-56
2022/06/17 07:33:19;;;;;;;16.42;10.00;;;;;;;20.15;59.37;102263.00;5056399;28;20496;-56
2022/06/17 07:35:46;;;;;;;14.57;9.70;;;;;;;20.18;58.69;102256.38;5055195;28;20025;-56
2022/06/17 07:41:06;;;;;;;12.32;9.88;;;;;;;20.26;57.63;102270.53;5025707;28;20332;-56
2022/06/17 07:43:31;;;;;;;14.75;8.35;;;;;;;20.34;57.72;102291.94;5048214;28;20827;-55
2022/06/17 07:45:57;;;;;;;14.70;8.20;;;;;;;20.39;57.61;102292.19;5055131;28;20028;-57
2022/06/17 07:48:23;;;;;;;11.90;8.20;;;;;;;20.48;57.53;102295.56;5065939;28;20548;-53
2022/06/17 07:50:48;;;;;;;12.88;8.43;;;;;;;20.53;57.60;102294.97;5045182;28;20120;-56
2022/06/17 07:53:15;;;;;;;13.70;8.57;;;;;;;20.53;57.35;102290.44;5058021;28;20020;-56
2022/06/17 07:55:42;;;;;;;12.57;9.15;;;;;;;20.54;56.95;102285.84;5048642;28;20017;-57
2022/06/17 07:58:11;;;;;;;17.02;9.18;;;;;;;20.58;56.94;102282.56;5048082;28;20021;-56
2022/06/17 08:00:41;;;;;;;10.20;7.50;;;;;;;20.67;56.32;102286.72;5046533;28;20052;-56
2022/06/17 08:03:07;;;;;;;11.55;7.07;;;;;;;20.72;55.21;102276.16;5053853;28;20392;-56
2022/06/17 08:05:33;;;;;;;12.18;7.00;;;;;;;20.81;54.91;102289.47;5062378;28;20032;-56
2022/06/17 08:07:58;;;;;;;8.80;6.90;;;;;;;20.92;54.99;102292.41;5047422;28;20477;-57
2022/06/17 08:10:28;;;;;;;12.98;6.63;;;;;;;21.09;54.96;102303.66;5049329;28;20584;-57
2022/06/17 08:12:54;;;;;;;14.70;7.40;;;;;;;21.24;54.56;102296.25;5043496;28;20102;-57
2022/06/17 08:15:20;;;;;;;11.65;6.75;;;;;;;21.40;54.62;102296.91;5052496;28;20031;-56
2022/06/17 08:17:46;;;;;;;9.77;6.40;;;;;;;21.52;54.27;102296.06;5053872;28;20266;-57
2022/06/17 08:20:21;;;;;;;10.57;5.93;;;;;;;21.57;52.60;102301.69;5051932;28;20666;-57
2022/06/17 08:22:47;;;;;;;14.02;6.00;;;;;;;21.57;52.36;102298.97;5044939;28;20074;-55
2022/06/17 08:25:13;;;;;;;7.05;5.03;;;;;;;21.63;52.83;102294.59;5044758;28;20540;-57
2022/06/17 08:27:53;;;;;;;7.55;5.50;;;;;;;21.73;52.14;102303.16;5045212;28;20017;-57
2022/06/17 08:30:22;;;;;;;8.40;5.55;;;;;;;21.69;51.09;102296.50;5050655;28;20024;-56
2022/06/17 08:32:48;;;;;;;10.60;5.78;;;;;;;21.72;51.30;102289.84;5055783;28;20013;-56
2022/06/17 08:35:18;;;;;;;12.95;5.68;;;;;;;21.76;51.07;102286.50;5045404;28;20056;-56
2022/06/17 08:37:46;;;;;;;9.40;5.20;;;;;;;21.86;50.57;102269.84;5046102;28;20392;-56
2022/06/17 08:40:20;;;;;;;9.15;5.28;;;;;;;22.03;51.36;102267.53;5048486;28;20108;-56
2022/06/17 08:43:03;;;;;;;6.88;4.30;;;;;;;22.15;50.75;102265.84;5038007;28;20480;-57
2022/06/17 08:45:31;;;;;;;6.15;4.75;;;;;;;22.24;50.56;102272.69;5039496;28;20024;-54
2022/06/17 08:48:09;;;;;;;11.93;4.82;;;;;;;22.30;49.64;102271.88;5041529;28;20503;-56
2022/06/17 08:50:47;;;;;;;9.60;4.43;;;;;;;22.37;50.09;102274.53;5042569;28;20564;-57
2022/06/17 08:53:23;;;;;;;9.30;4.70;;;;;;;22.48;50.39;102271.16;5045487;28;20029;-56
2022/06/17 08:56:04;;;;;;;9.68;4.57;;;;;;;22.56;49.54;102279.88;5043244;28;20464;-56
2022/06/17 08:58:51;;;;;;;8.63;4.40;;;;;;;22.65;49.13;102285.03;5039313;28;20053;-56
2022/06/17 09:01:37;;;;;;;8.65;4.15;;;;;;;22.84;48.86;102278.72;5041340;28;20032;-54
2022/06/17 09:04:47;;;;;;;7.07;4.43;;;;;;;23.11;47.47;102290.22;5040486;28;20060;-56
2022/06/17 09:07:26;;;;;;;6.40;4.35;;;;;;;23.21;46.42;102292.47;4948403;28;20109;-56
2022/06/17 09:10:06;;;;;;;6.78;4.22;;;;;;;23.33;46.47;102285.28;5037038;28;20033;-56
2022/06/17 09:12:42;;;;;;;7.80;3.65;;;;;;;23.58;47.44;102274.47;5046682;28;20535;-55
2022/06/17 09:15:21;;;;;;;9.35;3.75;;;;;;;23.77;47.30;102273.47;5053943;28;20020;-57
2022/06/17 09:17:59;;;;;;;5.28;3.40;;;;;;;24.09;46.92;102266.03;5046930;28;20036;-54
2022/06/17 09:20:34;;;;;;;7.72;3.95;;;;;;;24.21;46.04;102272.38;5047280;28;20484;-56
2022/06/17 09:23:02;;;;;;;7.65;4.38;;;;;;;24.30;45.59;102281.91;5047328;28;20272;-57
2022/06/17 09:25:36;;;;;;;7.35;3.60;;;;;;;24.37;44.62;102274.50;5046728;28;20017;-55
2022/06/17 09:28:02;;;;;;;13.13;4.03;;;;;;;24.44;44.34;102269.00;5047135;28;20037;-55
2022/06/17 09:30:38;;;;;;;6.28;4.05;;;;;;;24.54;43.71;102271.16;5035491;28;20029;-57
2022/06/17 09:33:11;;;;;;;8.90;4.03;;;;;;;24.53;42.71;102269.50;5034551;28;20059;-56
2022/06/17 09:36:08;;;;;;;8.60;4.20;;;;;;;24.54;42.94;102279.31;5033508;28;21230;-56
2022/06/17 09:38:40;;;;;;;7.07;4.82;;;;;;;24.62;42.72;102282.56;5039915;28;20925;-57
2022/06/17 09:41:35;;;;;;;11.68;4.85;;;;;;;24.58;42.03;102278.66;5045406;28;20404;-57
2022/06/17 09:44:10;;;;;;;9.25;4.30;;;;;;;24.51;41.80;102285.19;5043027;28;20043;-57
2022/06/17 09:46:52;;;;;;;8.43;3.90;;;;;;;24.74;42.80;102279.88;5042762;28;20576;-56
2022/06/17 09:49:23;;;;;;;6.68;3.80;;;;;;;24.93;42.87;102278.78;5049272;28;20037;-56
2022/06/17 09:52:29;;;;;;;8.20;4.63;;;;;;;24.78;40.45;102283.81;5047216;28;20017;-55
2022/06/17 09:55:09;;;;;;;7.80;4.15;;;;;;;24.77;40.76;102276.72;4970348;28;20046;-57
2022/06/17 09:58:07;;;;;;;6.38;3.67;;;;;;;24.91;41.22;102272.75;5036494;28;20064;-57
2022/06/17 10:00:42;;;;;;;9.07;4.77;;;;;;;25.02;40.37;102276.59;4980131;28;20922;-56
2022/06/17 10:03:13;;;;;;;8.00;3.97;;;;;;;25.06;40.65;102274.25;5046621;28;20298;-56
2022/06/17 10:06:02;;;;;;;12.20;4.35;;;;;;;25.15;40.95;102264.69;5039930;28;20029;-56
2022/06/17 10:08:42;;;;;;;9.70;3.80;;;;;;;25.18;40.24;102256.09;5041471;28;20037;-57
2022/06/17 10:11:43;;;;;;;7.28;4.00;;;;;;;25.25;40.45;102252.19;5048285;28;20066;-57
2022/06/17 10:14:30;;;;;;;8.60;3.53;;;;;;;25.53;41.14;102246.06;5045401;28;20421;-57
2022/06/17 10:20:19;;;;;;;11.15;3.20;;;;;;;26.12;41.03;102241.44;5043076;28;20111;-57
2022/06/17 10:23:11;;;;;;;7.38;3.88;;;;;;;26.22;40.43;102232.63;5046553;28;20112;-56
2022/06/17 10:25:54;;;;;;;7.28;3.75;;;;;;;26.35;40.22;102234.31;5042248;28;20028;-57
2022/06/17 10:28:46;;;;;;;8.02;3.88;;;;;;;26.28;39.46;102225.38;5042205;28;20112;-57
2022/06/17 10:31:43;;;;;;;8.38;3.30;;;;;;;26.48;38.85;102223.09;5040335;28;20124;-56
2022/06/17 10:34:17;;;;;;;9.13;3.50;;;;;;;26.38;38.56;102218.31;5041180;28;20167;-55
2022/06/17 10:36:45;;;;;;;8.77;3.03;;;;;;;26.48;39.67;102223.09;5043171;28;20021;-57
2022/06/17 10:39:13;;;;;;;8.27;2.92;;;;;;;26.57;39.38;102229.00;5044593;28;20031;-56
2022/06/17 10:41:40;;;;;;;8.13;3.03;;;;;;;26.63;38.69;102233.50;5045127;28;20079;-56
2022/06/17 10:44:09;;;;;;;4.80;2.92;;;;;;;26.63;38.00;102231.59;5044233;28;20021;-56
2022/06/17 10:46:39;;;;;;;6.57;3.00;;;;;;;26.50;36.89;102229.13;5043335;28;20526;-57
2022/06/17 10:49:18;;;;;;;5.53;2.47;;;;;;;26.45;36.79;102224.44;5042582;28;20029;-56
2022/06/17 10:51:46;;;;;;;5.03;2.58;;;;;;;26.45;36.91;102224.44;5037270;28;20021;-58
2022/06/17 10:54:20;;;;;;;4.47;2.40;;;;;;;26.49;37.18;102222.88;5046598;28;20036;-56
2022/06/17 10:56:58;;;;;;;4.68;2.45;;;;;;;26.51;36.91;102218.00;5024305;28;20028;-56
2022/06/17 10:59:36;;;;;;;4.97;2.15;;;;;;;26.80;37.91;102209.81;5045819;28;20033;-57
2022/06/17 11:02:03;;;;;;;7.03;2.45;;;;;;;27.00;37.63;102215.66;5042779;28;20466;-57
2022/06/17 11:04:29;;;;;;;3.92;1.85;;;;;;;27.01;35.87;102209.13;5048301;28;20029;-57
2022/06/17 11:07:01;;;;;;;4.25;1.88;;;;;;;26.86;35.76;102204.19;5049313;28;20059;-56
2022/06/17 11:09:38;;;;;;;3.47;2.00;;;;;;;26.81;35.74;102204.09;5060545;28;20031;-56
2022/06/17 11:12:14;;;;;;;3.60;2.15;;;;;;;26.80;36.20;102190.72;5049464;28;20017;-55
2022/06/17 11:14:45;;;;;;;5.65;2.10;;;;;;;26.83;35.95;102193.78;5056605;28;20032;-56
2022/06/17 11:17:20;;;;;;;4.03;2.10;;;;;;;26.89;35.79;102189.25;5042188;28;20511;-56
2022/06/17 11:19:49;;;;;;;8.65;1.90;;;;;;;26.82;35.38;102183.94;5050764;28;20032;-56
2022/06/17 11:22:40;;;;;;;3.90;2.05;;;;;;;26.75;34.96;102183.28;5050607;28;20025;-56
2022/06/17 11:25:19;;;;;;;5.13;1.95;;;;;;;26.96;35.42;102178.19;5044942;28;20037;-57
2022/06/17 11:27:55;;;;;;;3.67;1.90;;;;;;;27.18;36.31;102176.41;5043057;28;20044;-56
2022/06/17 11:30:26;;;;;;;4.72;2.05;;;;;;;27.38;35.36;102182.16;5049630;28;20354;-57
2022/06/17 11:32:52;;;;;;;4.05;1.92;;;;;;;27.34;34.89;102170.09;5057613;28;20079;-56
2022/06/17 11:35:32;;;;;;;4.18;2.00;;;;;;;27.40;34.96;102163.63;5048335;28;20021;-56
2022/06/17 11:37:58;;;;;;;2.47;1.92;;;;;;;27.38;34.48;102159.50;5060922;28;20046;-57
2022/06/17 11:40:26;;;;;;;3.63;1.90;;;;;;;27.54;34.66;102155.91;5051595;28;20033;-57
2022/06/17 11:43:05;;;;;;;3.92;1.88;;;;;;;27.60;34.27;102157.63;5057139;28;20048;-57
2022/06/17 11:45:34;;;;;;;6.15;2.15;;;;;;;27.57;34.20;102160.88;5049191;28;20029;-57